sensor_id;sensor_type;location;lat;lon;timestamp;P1;durP1;ratioP1;P2;durP2;ratioP2
82628;SDS011;72298;49.640;20.652;2023-09-12T00:00:44;28.48;;;16.02;;
82628;SDS011;72298;49.640;20.652;2023-09-12T00:03:10;25.50;;;16.63;;
82628;SDS011;72298;49.640;20.652;2023-09-12T00:05:36;24.80;;;16.02;;
82628;SDS011;72298;49.640;20.652;2023-09-12T00:08:01;26.80;;;16.33;;
82628;SDS011;72298;49.640;20.652;2023-09-12T00:10:28;25.73;;;15.40;;
82628;SDS011;72298;49.640;20.652;2023-09-12T00:12:54;21.13;;;13.77;;
82628;SDS011;72298;49.640;20.652;2023-09-12T00:15:20;22.50;;;14.20;;
82628;SDS011;72298;49.640;20.652;2023-09-12T00:17:46;28.75;;;14.63;;
82628;SDS011;72298;49.640;20.652;2023-09-12T00:20:13;21.83;;;14.70;;
82628;SDS011;72298;49.640;20.652;2023-09-12T00:22:39;23.00;;;14.48;;
82628;SDS011;72298;49.640;20.652;2023-09-12T00:25:05;22.40;;;13.75;;
82628;SDS011;72298;49.640;20.652;2023-09-12T00:27:31;22.77;;;14.65;;
82628;SDS011;72298;49.640;20.652;2023-09-12T00:29:56;21.10;;;12.77;;
82628;SDS011;72298;49.640;20.652;2023-09-12T00:32:22;21.95;;;13.82;;
82628;SDS011;72298;49.640;20.652;2023-09-12T00:34:47;21.88;;;13.40;;
82628;SDS011;72298;49.640;20.652;2023-09-12T00:37:13;20.38;;;13.25;;
82628;SDS011;72298;49.640;20.652;2023-09-12T00:39:38;23.90;;;13.43;;
82628;SDS011;72298;49.640;20.652;2023-09-12T00:42:04;19.42;;;12.13;;
82628;SDS011;72298;49.640;20.652;2023-09-12T00:44:32;23.90;;;12.55;;
82628;SDS011;72298;49.640;20.652;2023-09-12T00:46:58;25.15;;;13.10;;
82628;SDS011;72298;49.640;20.652;2023-09-12T00:49:25;24.50;;;13.65;;
82628;SDS011;72298;49.640;20.652;2023-09-12T00:51:51;17.58;;;12.10;;
82628;SDS011;72298;49.640;20.652;2023-09-12T00:54:17;20.85;;;12.85;;
82628;SDS011;72298;49.640;20.652;2023-09-12T00:56:43;18.60;;;11.75;;
82628;SDS011;72298;49.640;20.652;2023-09-12T00:59:09;19.52;;;12.02;;
82628;SDS011;72298;49.640;20.652;2023-09-12T01:01:35;19.45;;;11.02;;
82628;SDS011;72298;49.640;20.652;2023-09-12T01:04:01;22.10;;;11.93;;
82628;SDS011;72298;49.640;20.652;2023-09-12T01:06:27;21.38;;;12.60;;
82628;SDS011;72298;49.640;20.652;2023-09-12T01:08:54;19.52;;;12.35;;
82628;SDS011;72298;49.640;20.652;2023-09-12T01:11:20;17.25;;;11.95;;
82628;SDS011;72298;49.640;20.652;2023-09-12T01:13:46;20.60;;;11.95;;
82628;SDS011;72298;49.640;20.652;2023-09-12T01:16:12;19.48;;;12.27;;
82628;SDS011;72298;49.640;20.652;2023-09-12T01:18:37;18.50;;;11.98;;
82628;SDS011;72298;49.640;20.652;2023-09-12T01:24:04;20.38;;;12.65;;
82628;SDS011;72298;49.640;20.652;2023-09-12T01:29:07;18.88;;;12.13;;
82628;SDS011;72298;49.640;20.652;2023-09-12T01:31:33;21.10;;;12.38;;
82628;SDS011;72298;49.640;20.652;2023-09-12T01:34:09;20.35;;;13.20;;
82628;SDS011;72298;49.640;20.652;2023-09-12T01:36:36;19.63;;;13.43;;
82628;SDS011;72298;49.640;20.652;2023-09-12T01:39:01;19.00;;;11.20;;
82628;SDS011;72298;49.640;20.652;2023-09-12T01:41:27;20.20;;;12.95;;
82628;SDS011;72298;49.640;20.652;2023-09-12T01:43:54;18.73;;;12.93;;
82628;SDS011;72298;49.640;20.652;2023-09-12T01:46:20;17.17;;;11.23;;
82628;SDS011;72298;49.640;20.652;2023-09-12T01:48:46;18.23;;;11.27;;
82628;SDS011;72298;49.640;20.652;2023-09-12T01:51:16;17.90;;;12.57;;
82628;SDS011;72298;49.640;20.652;2023-09-12T01:53:42;18.48;;;11.60;;
82628;SDS011;72298;49.640;20.652;2023-09-12T01:56:09;23.63;;;12.13;;
82628;SDS011;72298;49.640;20.652;2023-09-12T01:58:34;27.55;;;12.77;;
82628;SDS011;72298;49.640;20.652;2023-09-12T02:01:00;17.92;;;11.80;;
82628;SDS011;72298;49.640;20.652;2023-09-12T02:03:26;19.13;;;12.88;;
82628;SDS011;72298;49.640;20.652;2023-09-12T02:05:51;20.67;;;12.23;;
82628;SDS011;72298;49.640;20.652;2023-09-12T02:08:17;19.10;;;12.40;;
82628;SDS011;72298;49.640;20.652;2023-09-12T02:10:42;20.92;;;12.77;;
82628;SDS011;72298;49.640;20.652;2023-09-12T02:13:08;20.83;;;12.05;;
82628;SDS011;72298;49.640;20.652;2023-09-12T02:15:33;22.63;;;12.98;;
82628;SDS011;72298;49.640;20.652;2023-09-12T02:17:59;19.13;;;12.00;;
82628;SDS011;72298;49.640;20.652;2023-09-12T02:20:24;19.20;;;11.93;;
82628;SDS011;72298;49.640;20.652;2023-09-12T02:22:50;19.13;;;12.13;;
82628;SDS011;72298;49.640;20.652;2023-09-12T02:25:16;17.65;;;11.77;;
82628;SDS011;72298;49.640;20.652;2023-09-12T02:27:42;19.95;;;11.95;;
82628;SDS011;72298;49.640;20.652;2023-09-12T02:30:07;20.50;;;12.55;;
82628;SDS011;72298;49.640;20.652;2023-09-12T02:32:33;21.70;;;12.55;;
82628;SDS011;72298;49.640;20.652;2023-09-12T02:34:58;15.55;;;10.98;;
82628;SDS011;72298;49.640;20.652;2023-09-12T02:37:25;16.90;;;11.02;;
82628;SDS011;72298;49.640;20.652;2023-09-12T02:39:50;17.85;;;11.85;;
82628;SDS011;72298;49.640;20.652;2023-09-12T02:42:16;23.27;;;12.13;;
82628;SDS011;72298;49.640;20.652;2023-09-12T02:44:41;16.10;;;11.30;;
82628;SDS011;72298;49.640;20.652;2023-09-12T02:47:07;17.75;;;10.65;;
82628;SDS011;72298;49.640;20.652;2023-09-12T02:49:32;16.13;;;10.90;;
82628;SDS011;72298;49.640;20.652;2023-09-12T02:51:58;18.00;;;11.10;;
82628;SDS011;72298;49.640;20.652;2023-09-12T02:54:23;18.05;;;11.98;;
82628;SDS011;72298;49.640;20.652;2023-09-12T02:56:49;16.88;;;10.98;;
82628;SDS011;72298;49.640;20.652;2023-09-12T02:59:15;16.85;;;11.10;;
82628;SDS011;72298;49.640;20.652;2023-09-12T03:01:40;20.75;;;11.45;;
82628;SDS011;72298;49.640;20.652;2023-09-12T03:04:06;19.88;;;11.93;;
82628;SDS011;72298;49.640;20.652;2023-09-12T03:06:32;17.23;;;11.15;;
82628;SDS011;72298;49.640;20.652;2023-09-12T03:08:58;19.10;;;11.60;;
82628;SDS011;72298;49.640;20.652;2023-09-12T03:11:25;23.92;;;11.40;;
82628;SDS011;72298;49.640;20.652;2023-09-12T03:13:52;17.00;;;11.77;;
82628;SDS011;72298;49.640;20.652;2023-09-12T03:16:18;19.00;;;11.52;;
82628;SDS011;72298;49.640;20.652;2023-09-12T03:18:44;14.68;;;10.60;;
82628;SDS011;72298;49.640;20.652;2023-09-12T03:21:09;18.15;;;11.70;;
82628;SDS011;72298;49.640;20.652;2023-09-12T03:23:35;18.45;;;12.30;;
82628;SDS011;72298;49.640;20.652;2023-09-12T03:26:03;18.30;;;12.18;;
82628;SDS011;72298;49.640;20.652;2023-09-12T03:28:30;18.05;;;10.75;;
82628;SDS011;72298;49.640;20.652;2023-09-12T03:31:09;20.38;;;12.70;;
82628;SDS011;72298;49.640;20.652;2023-09-12T03:33:38;18.13;;;11.30;;
82628;SDS011;72298;49.640;20.652;2023-09-12T03:36:08;22.65;;;11.48;;
82628;SDS011;72298;49.640;20.652;2023-09-12T03:38:34;18.95;;;12.15;;
82628;SDS011;72298;49.640;20.652;2023-09-12T03:41:00;16.55;;;11.95;;
82628;SDS011;72298;49.640;20.652;2023-09-12T03:43:27;19.45;;;12.70;;
82628;SDS011;72298;49.640;20.652;2023-09-12T03:45:53;18.70;;;11.50;;
82628;SDS011;72298;49.640;20.652;2023-09-12T03:48:18;20.60;;;11.73;;
82628;SDS011;72298;49.640;20.652;2023-09-12T03:50:44;17.90;;;11.88;;
82628;SDS011;72298;49.640;20.652;2023-09-12T03:53:10;20.83;;;11.75;;
82628;SDS011;72298;49.640;20.652;2023-09-12T03:55:36;19.13;;;12.57;;
82628;SDS011;72298;49.640;20.652;2023-09-12T03:58:01;17.92;;;11.98;;
82628;SDS011;72298;49.640;20.652;2023-09-12T04:00:27;19.52;;;11.25;;
82628;SDS011;72298;49.640;20.652;2023-09-12T04:02:53;18.80;;;11.70;;
82628;SDS011;72298;49.640;20.652;2023-09-12T04:05:19;24.73;;;11.45;;
82628;SDS011;72298;49.640;20.652;2023-09-12T04:07:44;20.35;;;11.13;;
82628;SDS011;72298;49.640;20.652;2023-09-12T04:10:10;16.67;;;11.07;;
82628;SDS011;72298;49.640;20.652;2023-09-12T04:12:35;22.17;;;12.77;;
82628;SDS011;72298;49.640;20.652;2023-09-12T04:15:01;19.05;;;12.05;;
82628;SDS011;72298;49.640;20.652;2023-09-12T04:17:27;18.92;;;11.68;;
82628;SDS011;72298;49.640;20.652;2023-09-12T04:19:52;17.50;;;12.00;;
82628;SDS011;72298;49.640;20.652;2023-09-12T04:22:18;22.98;;;12.02;;
82628;SDS011;72298;49.640;20.652;2023-09-12T04:24:43;17.90;;;11.65;;
82628;SDS011;72298;49.640;20.652;2023-09-12T04:27:09;19.52;;;11.00;;
82628;SDS011;72298;49.640;20.652;2023-09-12T04:29:34;25.92;;;11.98;;
82628;SDS011;72298;49.640;20.652;2023-09-12T04:32:01;18.63;;;12.00;;
82628;SDS011;72298;49.640;20.652;2023-09-12T04:34:28;20.85;;;11.68;;
82628;SDS011;72298;49.640;20.652;2023-09-12T04:36:54;15.68;;;11.32;;
82628;SDS011;72298;49.640;20.652;2023-09-12T04:39:19;23.45;;;11.68;;
82628;SDS011;72298;49.640;20.652;2023-09-12T04:41:45;16.45;;;11.68;;
82628;SDS011;72298;49.640;20.652;2023-09-12T04:44:11;17.83;;;11.30;;
82628;SDS011;72298;49.640;20.652;2023-09-12T04:46:37;19.02;;;11.65;;
82628;SDS011;72298;49.640;20.652;2023-09-12T04:49:02;19.30;;;11.60;;
82628;SDS011;72298;49.640;20.652;2023-09-12T04:51:28;17.33;;;10.98;;
82628;SDS011;72298;49.640;20.652;2023-09-12T04:53:54;23.58;;;12.65;;
82628;SDS011;72298;49.640;20.652;2023-09-12T04:56:20;22.73;;;11.07;;
82628;SDS011;72298;49.640;20.652;2023-09-12T04:58:45;17.58;;;11.15;;
82628;SDS011;72298;49.640;20.652;2023-09-12T05:01:11;15.70;;;10.68;;
82628;SDS011;72298;49.640;20.652;2023-09-12T05:03:36;16.10;;;11.05;;
82628;SDS011;72298;49.640;20.652;2023-09-12T05:06:02;19.73;;;12.00;;
82628;SDS011;72298;49.640;20.652;2023-09-12T05:08:28;19.33;;;11.73;;
82628;SDS011;72298;49.640;20.652;2023-09-12T05:10:54;16.85;;;11.00;;
82628;SDS011;72298;49.640;20.652;2023-09-12T05:13:20;17.33;;;10.82;;
82628;SDS011;72298;49.640;20.652;2023-09-12T05:15:46;18.42;;;12.15;;
82628;SDS011;72298;49.640;20.652;2023-09-12T05:18:12;17.05;;;11.32;;
82628;SDS011;72298;49.640;20.652;2023-09-12T05:20:37;15.43;;;10.82;;
82628;SDS011;72298;49.640;20.652;2023-09-12T05:23:03;20.05;;;11.73;;
82628;SDS011;72298;49.640;20.652;2023-09-12T05:25:29;18.35;;;11.13;;
82628;SDS011;72298;49.640;20.652;2023-09-12T05:27:55;14.63;;;10.68;;
82628;SDS011;72298;49.640;20.652;2023-09-12T05:30:20;21.08;;;12.07;;
82628;SDS011;72298;49.640;20.652;2023-09-12T05:32:46;23.08;;;10.98;;
82628;SDS011;72298;49.640;20.652;2023-09-12T05:35:12;17.00;;;10.77;;
82628;SDS011;72298;49.640;20.652;2023-09-12T05:37:37;17.90;;;10.82;;
82628;SDS011;72298;49.640;20.652;2023-09-12T05:40:03;19.70;;;11.88;;
82628;SDS011;72298;49.640;20.652;2023-09-12T05:42:29;15.27;;;11.15;;
82628;SDS011;72298;49.640;20.652;2023-09-12T05:44:54;19.77;;;11.68;;
82628;SDS011;72298;49.640;20.652;2023-09-12T05:47:21;21.08;;;11.80;;
82628;SDS011;72298;49.640;20.652;2023-09-12T05:49:47;21.90;;;11.18;;
82628;SDS011;72298;49.640;20.652;2023-09-12T05:52:13;18.40;;;10.40;;
82628;SDS011;72298;49.640;20.652;2023-09-12T05:54:39;16.40;;;10.82;;
82628;SDS011;72298;49.640;20.652;2023-09-12T05:57:06;18.20;;;11.13;;
82628;SDS011;72298;49.640;20.652;2023-09-12T05:59:32;16.95;;;10.30;;
82628;SDS011;72298;49.640;20.652;2023-09-12T06:01:59;30.95;;;13.10;;
82628;SDS011;72298;49.640;20.652;2023-09-12T06:04:25;20.00;;;10.88;;
82628;SDS011;72298;49.640;20.652;2023-09-12T06:06:50;16.83;;;10.80;;
82628;SDS011;72298;49.640;20.652;2023-09-12T06:09:16;15.85;;;9.93;;
82628;SDS011;72298;49.640;20.652;2023-09-12T06:11:41;18.45;;;11.15;;
82628;SDS011;72298;49.640;20.652;2023-09-12T06:14:07;18.33;;;10.20;;
82628;SDS011;72298;49.640;20.652;2023-09-12T06:16:32;21.00;;;11.55;;
82628;SDS011;72298;49.640;20.652;2023-09-12T06:18:58;15.40;;;9.75;;
82628;SDS011;72298;49.640;20.652;2023-09-12T06:21:23;16.60;;;10.05;;
82628;SDS011;72298;49.640;20.652;2023-09-12T06:24:07;17.40;;;10.50;;
82628;SDS011;72298;49.640;20.652;2023-09-12T06:26:36;22.90;;;10.90;;
82628;SDS011;72298;49.640;20.652;2023-09-12T06:29:02;16.08;;;10.35;;
82628;SDS011;72298;49.640;20.652;2023-09-12T06:31:28;18.10;;;10.63;;
82628;SDS011;72298;49.640;20.652;2023-09-12T06:33:53;19.05;;;10.52;;
82628;SDS011;72298;49.640;20.652;2023-09-12T06:36:19;19.27;;;11.10;;
82628;SDS011;72298;49.640;20.652;2023-09-12T06:38:46;16.90;;;10.15;;
82628;SDS011;72298;49.640;20.652;2023-09-12T06:41:11;18.80;;;11.75;;
82628;SDS011;72298;49.640;20.652;2023-09-12T06:43:37;14.68;;;10.15;;
82628;SDS011;72298;49.640;20.652;2023-09-12T06:46:03;18.95;;;10.68;;
82628;SDS011;72298;49.640;20.652;2023-09-12T06:48:28;21.02;;;10.60;;
82628;SDS011;72298;49.640;20.652;2023-09-12T06:50:54;19.38;;;11.38;;
82628;SDS011;72298;49.640;20.652;2023-09-12T06:53:20;16.75;;;10.52;;
82628;SDS011;72298;49.640;20.652;2023-09-12T06:55:45;20.20;;;12.25;;
82628;SDS011;72298;49.640;20.652;2023-09-12T06:58:11;16.48;;;11.25;;
82628;SDS011;72298;49.640;20.652;2023-09-12T07:00:37;16.70;;;12.20;;
82628;SDS011;72298;49.640;20.652;2023-09-12T07:03:03;26.35;;;12.05;;
82628;SDS011;72298;49.640;20.652;2023-09-12T07:05:28;17.67;;;11.70;;
82628;SDS011;72298;49.640;20.652;2023-09-12T07:07:55;18.60;;;11.85;;
82628;SDS011;72298;49.640;20.652;2023-09-12T07:10:21;20.95;;;12.40;;
82628;SDS011;72298;49.640;20.652;2023-09-12T07:12:46;20.98;;;12.68;;
82628;SDS011;72298;49.640;20.652;2023-09-12T07:15:12;20.63;;;12.52;;
82628;SDS011;72298;49.640;20.652;2023-09-12T07:17:38;20.05;;;13.82;;
82628;SDS011;72298;49.640;20.652;2023-09-12T07:20:04;22.17;;;13.52;;
82628;SDS011;72298;49.640;20.652;2023-09-12T07:22:30;24.05;;;14.10;;
82628;SDS011;72298;49.640;20.652;2023-09-12T07:24:59;23.98;;;14.50;;
82628;SDS011;72298;49.640;20.652;2023-09-12T07:27:25;21.30;;;13.93;;
82628;SDS011;72298;49.640;20.652;2023-09-12T07:29:51;21.75;;;14.15;;
82628;SDS011;72298;49.640;20.652;2023-09-12T07:32:16;22.80;;;13.90;;
82628;SDS011;72298;49.640;20.652;2023-09-12T07:34:42;27.15;;;13.52;;
82628;SDS011;72298;49.640;20.652;2023-09-12T07:37:13;25.80;;;13.70;;
82628;SDS011;72298;49.640;20.652;2023-09-12T07:39:39;20.33;;;12.23;;
82628;SDS011;72298;49.640;20.652;2023-09-12T07:42:06;22.98;;;13.48;;
82628;SDS011;72298;49.640;20.652;2023-09-12T07:46:57;17.45;;;11.45;;
82628;SDS011;72298;49.640;20.652;2023-09-12T07:49:22;16.50;;;11.02;;
82628;SDS011;72298;49.640;20.652;2023-09-12T07:51:51;18.63;;;11.65;;
82628;SDS011;72298;49.640;20.652;2023-09-12T07:54:17;21.25;;;10.90;;
82628;SDS011;72298;49.640;20.652;2023-09-12T07:56:43;18.75;;;10.45;;
82628;SDS011;72298;49.640;20.652;2023-09-12T07:59:08;15.63;;;10.15;;
82628;SDS011;72298;49.640;20.652;2023-09-12T08:01:36;18.35;;;11.15;;
82628;SDS011;72298;49.640;20.652;2023-09-12T08:04:01;14.25;;;10.13;;
82628;SDS011;72298;49.640;20.652;2023-09-12T08:06:27;14.77;;;9.73;;
82628;SDS011;72298;49.640;20.652;2023-09-12T08:08:52;20.83;;;11.00;;
82628;SDS011;72298;49.640;20.652;2023-09-12T08:11:18;17.23;;;10.13;;
82628;SDS011;72298;49.640;20.652;2023-09-12T08:13:45;16.80;;;10.52;;
82628;SDS011;72298;49.640;20.652;2023-09-12T08:16:13;17.13;;;9.70;;
82628;SDS011;72298;49.640;20.652;2023-09-12T08:18:38;18.10;;;9.00;;
82628;SDS011;72298;49.640;20.652;2023-09-12T08:21:04;17.80;;;9.82;;
82628;SDS011;72298;49.640;20.652;2023-09-12T08:23:29;14.65;;;9.90;;
82628;SDS011;72298;49.640;20.652;2023-09-12T08:25:55;14.93;;;9.27;;
82628;SDS011;72298;49.640;20.652;2023-09-12T08:28:20;14.95;;;10.65;;
82628;SDS011;72298;49.640;20.652;2023-09-12T08:30:46;16.08;;;9.63;;
82628;SDS011;72298;49.640;20.652;2023-09-12T08:33:11;15.55;;;10.25;;
82628;SDS011;72298;49.640;20.652;2023-09-12T08:35:37;16.40;;;10.82;;
82628;SDS011;72298;49.640;20.652;2023-09-12T08:38:03;20.85;;;11.23;;
82628;SDS011;72298;49.640;20.652;2023-09-12T08:40:28;18.75;;;11.18;;
82628;SDS011;72298;49.640;20.652;2023-09-12T08:42:55;20.02;;;11.32;;
82628;SDS011;72298;49.640;20.652;2023-09-12T08:45:22;21.48;;;10.52;;
82628;SDS011;72298;49.640;20.652;2023-09-12T08:47:52;17.25;;;11.60;;
82628;SDS011;72298;49.640;20.652;2023-09-12T08:50:18;21.25;;;11.00;;
82628;SDS011;72298;49.640;20.652;2023-09-12T08:52:46;19.90;;;12.38;;
82628;SDS011;72298;49.640;20.652;2023-09-12T08:55:12;22.63;;;10.77;;
82628;SDS011;72298;49.640;20.652;2023-09-12T08:57:40;15.23;;;11.15;;
82628;SDS011;72298;49.640;20.652;2023-09-12T09:00:07;19.98;;;12.18;;
82628;SDS011;72298;49.640;20.652;2023-09-12T09:02:37;15.95;;;11.35;;
82628;SDS011;72298;49.640;20.652;2023-09-12T09:05:04;17.48;;;10.43;;
82628;SDS011;72298;49.640;20.652;2023-09-12T09:07:37;17.25;;;12.20;;
82628;SDS011;72298;49.640;20.652;2023-09-12T09:10:10;20.60;;;11.40;;
82628;SDS011;72298;49.640;20.652;2023-09-12T09:12:39;17.02;;;10.50;;
82628;SDS011;72298;49.640;20.652;2023-09-12T09:15:23;19.08;;;11.02;;
82628;SDS011;72298;49.640;20.652;2023-09-12T09:17:51;14.98;;;10.07;;
82628;SDS011;72298;49.640;20.652;2023-09-12T09:20:30;18.73;;;11.45;;
82628;SDS011;72298;49.640;20.652;2023-09-12T09:23:03;18.45;;;11.25;;
82628;SDS011;72298;49.640;20.652;2023-09-12T09:25:36;15.07;;;9.98;;
82628;SDS011;72298;49.640;20.652;2023-09-12T09:28:06;13.10;;;9.00;;
82628;SDS011;72298;49.640;20.652;2023-09-12T09:30:45;16.92;;;9.60;;
82628;SDS011;72298;49.640;20.652;2023-09-12T09:33:16;12.88;;;8.98;;
82628;SDS011;72298;49.640;20.652;2023-09-12T09:35:42;13.57;;;8.77;;
82628;SDS011;72298;49.640;20.652;2023-09-12T09:38:12;13.10;;;7.97;;
82628;SDS011;72298;49.640;20.652;2023-09-12T09:40:42;14.02;;;9.18;;
82628;SDS011;72298;49.640;20.652;2023-09-12T09:45:33;14.93;;;9.05;;
82628;SDS011;72298;49.640;20.652;2023-09-12T09:48:08;14.27;;;8.48;;
82628;SDS011;72298;49.640;20.652;2023-09-12T09:50:34;11.63;;;8.20;;
82628;SDS011;72298;49.640;20.652;2023-09-12T09:53:03;14.50;;;8.63;;
82628;SDS011;72298;49.640;20.652;2023-09-12T09:55:30;12.75;;;7.70;;
82628;SDS011;72298;49.640;20.652;2023-09-12T09:57:57;10.32;;;8.18;;
82628;SDS011;72298;49.640;20.652;2023-09-12T10:00:23;15.77;;;8.13;;
82628;SDS011;72298;49.640;20.652;2023-09-12T10:02:50;12.20;;;7.97;;
82628;SDS011;72298;49.640;20.652;2023-09-12T10:05:17;10.02;;;7.28;;
82628;SDS011;72298;49.640;20.652;2023-09-12T10:07:43;12.85;;;8.20;;
82628;SDS011;72298;49.640;20.652;2023-09-12T10:10:16;12.45;;;7.95;;
82628;SDS011;72298;49.640;20.652;2023-09-12T10:12:48;11.07;;;7.30;;
82628;SDS011;72298;49.640;20.652;2023-09-12T10:17:42;19.67;;;6.93;;
82628;SDS011;72298;49.640;20.652;2023-09-12T10:20:15;12.45;;;6.93;;
82628;SDS011;72298;49.640;20.652;2023-09-12T10:22:44;11.88;;;7.18;;
82628;SDS011;72298;49.640;20.652;2023-09-12T10:25:14;11.73;;;6.70;;
82628;SDS011;72298;49.640;20.652;2023-09-12T10:27:40;10.68;;;6.57;;
82628;SDS011;72298;49.640;20.652;2023-09-12T10:30:07;12.23;;;7.60;;
82628;SDS011;72298;49.640;20.652;2023-09-12T10:32:33;13.88;;;7.93;;
82628;SDS011;72298;49.640;20.652;2023-09-12T10:35:00;11.85;;;7.40;;
82628;SDS011;72298;49.640;20.652;2023-09-12T10:37:28;15.45;;;7.20;;
82628;SDS011;72298;49.640;20.652;2023-09-12T10:42:20;10.38;;;6.72;;
82628;SDS011;72298;49.640;20.652;2023-09-12T10:44:47;8.48;;;6.65;;
82628;SDS011;72298;49.640;20.652;2023-09-12T10:47:13;12.13;;;6.68;;
82628;SDS011;72298;49.640;20.652;2023-09-12T10:49:39;14.73;;;7.60;;
82628;SDS011;72298;49.640;20.652;2023-09-12T10:52:05;72.15;;;10.52;;
82628;SDS011;72298;49.640;20.652;2023-09-12T10:54:40;10.30;;;7.10;;
82628;SDS011;72298;49.640;20.652;2023-09-12T10:57:06;13.95;;;7.45;;
82628;SDS011;72298;49.640;20.652;2023-09-12T10:59:37;12.57;;;6.72;;
82628;SDS011;72298;49.640;20.652;2023-09-12T11:02:36;10.50;;;7.05;;
82628;SDS011;72298;49.640;20.652;2023-09-12T11:05:04;13.73;;;7.05;;
82628;SDS011;72298;49.640;20.652;2023-09-12T11:12:49;10.25;;;6.90;;
82628;SDS011;72298;49.640;20.652;2023-09-12T11:15:16;11.45;;;7.28;;
82628;SDS011;72298;49.640;20.652;2023-09-12T11:17:46;10.02;;;6.88;;
82628;SDS011;72298;49.640;20.652;2023-09-12T11:20:13;15.48;;;7.07;;
82628;SDS011;72298;49.640;20.652;2023-09-12T11:22:46;13.50;;;7.50;;
82628;SDS011;72298;49.640;20.652;2023-09-12T11:30:22;12.52;;;7.90;;
82628;SDS011;72298;49.640;20.652;2023-09-12T11:32:51;11.27;;;7.43;;
82628;SDS011;72298;49.640;20.652;2023-09-12T11:35:22;13.88;;;7.55;;
82628;SDS011;72298;49.640;20.652;2023-09-12T11:37:55;13.40;;;7.43;;
82628;SDS011;72298;49.640;20.652;2023-09-12T11:40:23;10.25;;;7.07;;
82628;SDS011;72298;49.640;20.652;2023-09-12T11:43:20;10.77;;;6.55;;
82628;SDS011;72298;49.640;20.652;2023-09-12T11:45:49;10.00;;;6.97;;
82628;SDS011;72298;49.640;20.652;2023-09-12T11:48:14;10.25;;;6.97;;
82628;SDS011;72298;49.640;20.652;2023-09-12T11:50:41;11.07;;;7.45;;
82628;SDS011;72298;49.640;20.652;2023-09-12T11:53:09;12.40;;;6.63;;
82628;SDS011;72298;49.640;20.652;2023-09-12T11:55:48;11.38;;;7.40;;
82628;SDS011;72298;49.640;20.652;2023-09-12T11:58:17;15.73;;;7.32;;
82628;SDS011;72298;49.640;20.652;2023-09-12T12:03:16;8.88;;;6.88;;
82628;SDS011;72298;49.640;20.652;2023-09-12T12:05:42;14.68;;;7.50;;
82628;SDS011;72298;49.640;20.652;2023-09-12T12:08:08;12.65;;;7.88;;
82628;SDS011;72298;49.640;20.652;2023-09-12T12:10:34;10.80;;;7.07;;
82628;SDS011;72298;49.640;20.652;2023-09-12T12:13:01;11.18;;;7.68;;
82628;SDS011;72298;49.640;20.652;2023-09-12T12:15:29;12.90;;;7.88;;
82628;SDS011;72298;49.640;20.652;2023-09-12T12:17:55;19.42;;;8.07;;
82628;SDS011;72298;49.640;20.652;2023-09-12T12:20:21;10.13;;;7.20;;
82628;SDS011;72298;49.640;20.652;2023-09-12T12:22:47;14.95;;;7.38;;
82628;SDS011;72298;49.640;20.652;2023-09-12T12:25:13;11.43;;;7.15;;
82628;SDS011;72298;49.640;20.652;2023-09-12T12:27:42;11.27;;;7.75;;
82628;SDS011;72298;49.640;20.652;2023-09-12T12:30:11;10.35;;;7.50;;
82628;SDS011;72298;49.640;20.652;2023-09-12T12:35:07;10.80;;;7.13;;
82628;SDS011;72298;49.640;20.652;2023-09-12T12:37:34;16.55;;;7.63;;
82628;SDS011;72298;49.640;20.652;2023-09-12T12:40:01;13.10;;;7.50;;
82628;SDS011;72298;49.640;20.652;2023-09-12T12:42:35;17.40;;;7.63;;
82628;SDS011;72298;49.640;20.652;2023-09-12T12:45:05;10.23;;;7.25;;
82628;SDS011;72298;49.640;20.652;2023-09-12T12:47:45;12.40;;;7.63;;
82628;SDS011;72298;49.640;20.652;2023-09-12T12:50:12;14.85;;;8.23;;
82628;SDS011;72298;49.640;20.652;2023-09-12T12:52:46;12.00;;;7.07;;
82628;SDS011;72298;49.640;20.652;2023-09-12T12:55:12;13.82;;;8.30;;
82628;SDS011;72298;49.640;20.652;2023-09-12T13:00:06;13.02;;;7.45;;
82628;SDS011;72298;49.640;20.652;2023-09-12T13:02:36;10.82;;;7.10;;
82628;SDS011;72298;49.640;20.652;2023-09-12T13:05:02;9.82;;;7.45;;
82628;SDS011;72298;49.640;20.652;2023-09-12T13:07:28;13.82;;;7.97;;
82628;SDS011;72298;49.640;20.652;2023-09-12T13:09:54;12.02;;;7.28;;
82628;SDS011;72298;49.640;20.652;2023-09-12T13:12:19;13.85;;;7.57;;
82628;SDS011;72298;49.640;20.652;2023-09-12T13:14:45;10.60;;;6.68;;
82628;SDS011;72298;49.640;20.652;2023-09-12T13:17:11;11.05;;;6.47;;
82628;SDS011;72298;49.640;20.652;2023-09-12T13:19:37;10.82;;;6.93;;
82628;SDS011;72298;49.640;20.652;2023-09-12T13:22:02;10.95;;;7.70;;
82628;SDS011;72298;49.640;20.652;2023-09-12T13:24:28;9.05;;;7.32;;
82628;SDS011;72298;49.640;20.652;2023-09-12T13:26:54;10.40;;;7.25;;
82628;SDS011;72298;49.640;20.652;2023-09-12T13:29:19;9.45;;;6.65;;
82628;SDS011;72298;49.640;20.652;2023-09-12T13:31:45;10.27;;;6.65;;
82628;SDS011;72298;49.640;20.652;2023-09-12T13:34:11;12.52;;;7.03;;
82628;SDS011;72298;49.640;20.652;2023-09-12T13:36:36;9.52;;;7.15;;
82628;SDS011;72298;49.640;20.652;2023-09-12T13:39:02;11.70;;;7.13;;
82628;SDS011;72298;49.640;20.652;2023-09-12T13:41:29;11.00;;;6.60;;
82628;SDS011;72298;49.640;20.652;2023-09-12T13:43:55;8.30;;;6.80;;
82628;SDS011;72298;49.640;20.652;2023-09-12T13:46:20;10.30;;;7.60;;
82628;SDS011;72298;49.640;20.652;2023-09-12T13:48:46;13.88;;;7.18;;
82628;SDS011;72298;49.640;20.652;2023-09-12T13:51:12;13.13;;;6.82;;
82628;SDS011;72298;49.640;20.652;2023-09-12T13:53:38;8.95;;;6.93;;
82628;SDS011;72298;49.640;20.652;2023-09-12T13:56:05;12.30;;;7.60;;
82628;SDS011;72298;49.640;20.652;2023-09-12T13:58:31;8.98;;;7.05;;
82628;SDS011;72298;49.640;20.652;2023-09-12T14:00:58;9.63;;;6.90;;
82628;SDS011;72298;49.640;20.652;2023-09-12T14:03:24;11.07;;;7.05;;
82628;SDS011;72298;49.640;20.652;2023-09-12T14:05:50;10.40;;;7.40;;
82628;SDS011;72298;49.640;20.652;2023-09-12T14:08:15;11.10;;;7.35;;
82628;SDS011;72298;49.640;20.652;2023-09-12T14:10:41;16.58;;;9.88;;
82628;SDS011;72298;49.640;20.652;2023-09-12T14:13:08;15.43;;;8.15;;
82628;SDS011;72298;49.640;20.652;2023-09-12T14:15:33;11.93;;;7.32;;
82628;SDS011;72298;49.640;20.652;2023-09-12T14:17:59;8.82;;;6.95;;
82628;SDS011;72298;49.640;20.652;2023-09-12T14:20:25;13.75;;;6.93;;
82628;SDS011;72298;49.640;20.652;2023-09-12T14:22:50;18.63;;;7.72;;
82628;SDS011;72298;49.640;20.652;2023-09-12T14:25:16;8.63;;;6.00;;
82628;SDS011;72298;49.640;20.652;2023-09-12T14:27:42;10.85;;;7.78;;
82628;SDS011;72298;49.640;20.652;2023-09-12T14:32:34;13.77;;;7.68;;
82628;SDS011;72298;49.640;20.652;2023-09-12T14:35:00;8.93;;;7.50;;
82628;SDS011;72298;49.640;20.652;2023-09-12T14:37:27;8.77;;;6.95;;
82628;SDS011;72298;49.640;20.652;2023-09-12T14:39:53;11.10;;;7.15;;
82628;SDS011;72298;49.640;20.652;2023-09-12T14:42:20;11.05;;;6.82;;
82628;SDS011;72298;49.640;20.652;2023-09-12T14:44:46;9.80;;;7.20;;
82628;SDS011;72298;49.640;20.652;2023-09-12T14:47:11;10.25;;;7.53;;